^^
Grace C. Lehan Memorial Weather Station Historical Data
Daily Summary for September 10, 2022 Units:  Both    English   Metric
Daily Weekly Monthly Yearly
  High: Low: Average:
Temperature: 68.9 °F /  20.5 °C 41.1 °F /  5.1 °C 57 °F /  13.9 °C
Dew Point: 52.6 °F /  11.4 °C 37.1 °F /  2.8 °C 47.8 °F /  8.8 °C
Humidity: 91% 55.1% 73%
Wind Speed: 9mph /  14.5km/h - 0.7mph /  1.1km/h
Wind Gust: 17mph /  27.4km/h - -
Wind- - SW
Pressure: 30.46 in /  1031.4 hPa 30.17 in /  1021.6 hPa -
Precipitation: 0.00 in /  0 mm    
 
 
Tabular Data for September 10, 2022
Time Temperature Dew Point Pressure Wind Wind Speed Wind Gust Humidity Rainfall Rate (Hourly) solar
00:04 42 °F /  5.6 °C 37.2 °F /  2.9 °C 30.46in /  1031.4hPa Calm     83% 0.00in /  0mm 0 W/m2
00:09 41.9 °F /  5.5 °C 37.1 °F /  2.8 °C 30.45in /  1031hPa Calm     83% 0.00in /  0mm 0 W/m2
00:14 41.8 °F /  5.4 °C 37.2 °F /  2.9 °C 30.45in /  1031hPa Calm     83.5% 0.00in /  0mm 0 W/m2
00:19 41.7 °F /  5.4 °C 37.2 °F /  2.9 °C 30.45in /  1031hPa Calm     84% 0.00in /  0mm 0 W/m2
00:24 41.7 °F /  5.4 °C 37.4 °F /  3 °C 30.45in /  1031hPa Calm     84.5% 0.00in /  0mm 0 W/m2
00:29 41.7 °F /  5.4 °C 37.5 °F /  3.1 °C 30.44in /  1030.7hPa Calm     85% 0.00in /  0mm 0 W/m2
00:34 41.8 °F /  5.4 °C 37.6 °F /  3.1 °C 30.44in /  1030.7hPa Calm     85% 0.00in /  0mm 0 W/m2
00:39 41.8 °F /  5.4 °C 37.7 °F /  3.2 °C 30.44in /  1030.7hPa Calm     85.2% 0.00in /  0mm 0 W/m2
00:44 41.9 °F /  5.5 °C 38 °F /  3.3 °C 30.43in /  1030.4hPa Calm     86% 0.00in /  0mm 0 W/m2
00:49 42 °F /  5.6 °C 38.1 °F /  3.4 °C 30.43in /  1030.4hPa Calm     86% 0.00in /  0mm 0 W/m2
00:54 42 °F /  5.6 °C 38.1 °F /  3.4 °C 30.43in /  1030.4hPa Calm     86% 0.00in /  0mm 0 W/m2
00:59 42 °F /  5.6 °C 38.1 °F /  3.4 °C 30.42in /  1030hPa Calm     86% 0.00in /  0mm 0 W/m2
01:04 42.1 °F /  5.6 °C 38.3 °F /  3.5 °C 30.42in /  1030hPa Calm     86% 0.00in /  0mm 0 W/m2
01:09 42.2 °F /  5.7 °C 38.3 °F /  3.5 °C 30.42in /  1030hPa Calm     86% 0.00in /  0mm 0 W/m2
01:14 42.3 °F /  5.7 °C 38.4 °F /  3.6 °C 30.42in /  1030hPa Calm     86% 0.00in /  0mm 0 W/m2
01:19 42.3 °F /  5.7 °C 38.4 °F /  3.6 °C 30.41in /  1029.7hPa Calm     86% 0.00in /  0mm 0 W/m2
01:24 42.2 °F /  5.7 °C 38.2 °F /  3.4 °C 30.41in /  1029.7hPa Calm     85.7% 0.00in /  0mm 0 W/m2
01:29 42 °F /  5.6 °C 37.9 °F /  3.3 °C 30.40in /  1029.3hPa Calm     85.2% 0.00in /  0mm 0 W/m2
01:34 41.9 °F /  5.5 °C 37.7 °F /  3.2 °C 30.40in /  1029.3hPa Calm     85% 0.00in /  0mm 0 W/m2
01:39 41.7 °F /  5.4 °C 37.5 °F /  3.1 °C 30.40in /  1029.3hPa Calm     85% 0.00in /  0mm 0 W/m2
01:44 41.5 °F /  5.3 °C 37.4 °F /  3 °C 30.41in /  1029.7hPa Calm     85% 0.00in /  0mm 0 W/m2
01:49 41.4 °F /  5.2 °C 37.5 °F /  3.1 °C 30.40in /  1029.3hPa Calm     85.9% 0.00in /  0mm 0 W/m2
01:54 41.2 °F /  5.1 °C 37.4 °F /  3 °C 30.40in /  1029.3hPa Calm     86% 0.00in /  0mm 0 W/m2
01:59 41.1 °F /  5.1 °C 37.3 °F /  2.9 °C 30.40in /  1029.3hPa Calm     86% 0.00in /  0mm 0 W/m2
02:04 41.1 °F /  5.1 °C 37.4 °F /  3 °C 30.40in /  1029.3hPa Calm     86.5% 0.00in /  0mm 0 W/m2
02:09 41.1 °F /  5.1 °C 37.6 °F /  3.1 °C 30.40in /  1029.3hPa Calm     87.2% 0.00in /  0mm 0 W/m2
02:14 41.3 °F /  5.2 °C 38 °F /  3.3 °C 30.40in /  1029.3hPa Calm     88% 0.00in /  0mm 0 W/m2
02:19 41.6 °F /  5.3 °C 38.6 °F /  3.7 °C 30.40in /  1029.3hPa Calm     88.9% 0.00in /  0mm 0 W/m2
02:24 42.1 °F /  5.6 °C 39.2 °F /  4 °C 30.39in /  1029hPa Calm     89.4% 0.00in /  0mm 0 W/m2
02:26 42.2 °F /  5.7 °C 39.5 °F /  4.2 °C 30.39in /  1029hPa Calm     90% 0.00in /  0mm 0 W/m2
02:30 42.4 °F /  5.8 °C 39.4 °F /  4.1 °C 30.39in /  1029hPa Calm     89% 0.00in /  0mm 0 W/m2
03:00 43.1 °F /  6.2 °C 40.4 °F /  4.7 °C 30.39in /  1029hPa Calm   2mph /  3.2km/h 90% 0.00in /  0mm 0 W/m2
03:30 43.8 °F /  6.6 °C 41.1 °F /  5.1 °C 30.38in /  1028.7hPa Calm   2mph /  3.2km/h 90% 0.00in /  0mm 0 W/m2
04:04 43.7 °F /  6.5 °C 40.7 °F /  4.8 °C 30.38in /  1028.7hPa Calm   2mph /  3.2km/h 89.1% 0.00in /  0mm 0 W/m2
04:09 43.7 °F /  6.5 °C 40.7 °F /  4.8 °C 30.38in /  1028.7hPa Calm     89% 0.00in /  0mm 0 W/m2
04:14 43.6 °F /  6.4 °C 40.6 °F /  4.8 °C 30.38in /  1028.7hPa Calm     89% 0.00in /  0mm 0 W/m2
04:19 43.5 °F /  6.4 °C 40.4 °F /  4.7 °C 30.38in /  1028.7hPa Calm     89% 0.00in /  0mm 0 W/m2
04:24 43.3 °F /  6.3 °C 40.3 °F /  4.6 °C 30.38in /  1028.7hPa Calm     89% 0.00in /  0mm 0 W/m2
04:29 43.1 °F /  6.2 °C 40 °F /  4.4 °C 30.37in /  1028.3hPa Calm     89% 0.00in /  0mm 0 W/m2
04:34 42.9 °F /  6.1 °C 39.9 °F /  4.4 °C 30.37in /  1028.3hPa Calm     89% 0.00in /  0mm 0 W/m2
04:39 42.8 °F /  6 °C 40.1 °F /  4.5 °C 30.37in /  1028.3hPa Calm     89.9% 0.00in /  0mm 0 W/m2
04:44 42.9 °F /  6.1 °C 40.1 °F /  4.5 °C 30.37in /  1028.3hPa Calm     90% 0.00in /  0mm 0 W/m2
04:49 42.8 °F /  6 °C 40.1 °F /  4.5 °C 30.37in /  1028.3hPa Calm     90% 0.00in /  0mm 0 W/m2
04:54 42.8 °F /  6 °C 40.1 °F /  4.5 °C 30.37in /  1028.3hPa Calm     90% 0.00in /  0mm 0 W/m2
04:59 42.7 °F /  5.9 °C 40 °F /  4.4 °C 30.37in /  1028.3hPa Calm     90% 0.00in /  0mm 0 W/m2
05:04 42.5 °F /  5.8 °C 39.8 °F /  4.3 °C 30.37in /  1028.3hPa Calm     90% 0.00in /  0mm 0 W/m2
05:09 42.3 °F /  5.7 °C 39.6 °F /  4.2 °C 30.37in /  1028.3hPa Calm     90% 0.00in /  0mm 0 W/m2
05:14 42.2 °F /  5.7 °C 39.5 °F /  4.2 °C 30.37in /  1028.3hPa Calm     90% 0.00in /  0mm 0 W/m2
05:19 42.2 °F /  5.7 °C 39.8 °F /  4.3 °C 30.37in /  1028.3hPa Calm     91% 0.00in /  0mm 0 W/m2
05:24 42.3 °F /  5.7 °C 39.9 °F /  4.4 °C 30.36in /  1028hPa Calm     91% 0.00in /  0mm 0 W/m2
05:29 42.3 °F /  5.7 °C 39.8 °F /  4.3 °C 30.36in /  1028hPa Calm     91% 0.00in /  0mm 0 W/m2
05:30 42.2 °F /  5.7 °C 39.8 °F /  4.3 °C 30.36in /  1028hPa Calm     91% 0.00in /  0mm 0 W/m2
06:00 42.4 °F /  5.8 °C 40 °F /  4.4 °C 30.36in /  1028hPa Calm   2mph /  3.2km/h 91% 0.00in /  0mm 0 W/m2
06:30 43.7 °F /  6.5 °C 41 °F /  5 °C 30.35in /  1027.7hPa Calm   3mph /  4.8km/h 90% 0.00in /  0mm 0 W/m2
07:00 43.8 °F /  6.6 °C 40.8 °F /  4.9 °C 30.35in /  1027.7hPa Calm   2mph /  3.2km/h 89% 0.00in /  0mm 9 W/m2
07:30 46.6 °F /  8.1 °C 43.2 °F /  6.2 °C 30.35in /  1027.7hPa Calm   3mph /  4.8km/h 88% 0.00in /  0mm 77 W/m2
08:04 51.5 °F /  10.8 °C 44.8 °F /  7.1 °C 30.36in /  1028hPa Calm   3mph /  4.8km/h 77.7% 0.00in /  0mm 206 W/m2
08:09 52.2 °F /  11.2 °C 44.7 °F /  7.1 °C 30.36in /  1028hPa Calm   1mph /  1.6km/h 75.6% 0.00in /  0mm 225 W/m2
08:14 52.5 °F /  11.4 °C 44.8 °F /  7.1 °C 30.35in /  1027.7hPa Calm   1mph /  1.6km/h 74.9% 0.00in /  0mm 257 W/m2
08:19 52.9 °F /  11.6 °C 44.8 °F /  7.1 °C 30.35in /  1027.7hPa Calm   1mph /  1.6km/h 73.8% 0.00in /  0mm 279 W/m2
08:24 53.3 °F /  11.8 °C 44.9 °F /  7.2 °C 30.35in /  1027.7hPa NW 0.6mph /  1km/h 6mph /  9.7km/h 73% 0.00in /  0mm 288 W/m2
08:29 54 °F /  12.2 °C 45.2 °F /  7.3 °C 30.35in /  1027.7hPa Calm   6mph /  9.7km/h 72% 0.00in /  0mm 301 W/m2
08:34 54.6 °F /  12.6 °C 45.2 °F /  7.3 °C 30.35in /  1027.7hPa WNW 0.5mph /  0.8km/h 6mph /  9.7km/h 70.6% 0.00in /  0mm 313 W/m2
08:39 55.2 °F /  12.9 °C 45.4 °F /  7.4 °C 30.35in /  1027.7hPa West 0.5mph /  0.8km/h 5mph /  8km/h 69.6% 0.00in /  0mm 322 W/m2
08:44 55.8 °F /  13.2 °C 45.8 °F /  7.7 °C 30.35in /  1027.7hPa WSW 1.5mph /  2.4km/h 5mph /  8km/h 69% 0.00in /  0mm 332 W/m2
08:49 56.3 °F /  13.5 °C 45.6 °F /  7.6 °C 30.35in /  1027.7hPa WSW 0.7mph /  1.1km/h 5mph /  8km/h 67.1% 0.00in /  0mm 345 W/m2
08:54 57 °F /  13.9 °C 46.1 °F /  7.8 °C 30.35in /  1027.7hPa SW 1mph /  1.6km/h 6mph /  9.7km/h 66.9% 0.00in /  0mm 357 W/m2
08:59 57.5 °F /  14.2 °C 45.9 °F /  7.7 °C 30.35in /  1027.7hPa WSW 1mph /  1.6km/h 6mph /  9.7km/h 65.1% 0.00in /  0mm 367 W/m2
09:04 57.7 °F /  14.3 °C 46.2 °F /  7.9 °C 30.35in /  1027.7hPa WSW 0.8mph /  1.3km/h 7mph /  11.3km/h 65.4% 0.00in /  0mm 376 W/m2
09:09 57.9 °F /  14.4 °C 45.9 °F /  7.7 °C 30.35in /  1027.7hPa SW 2.1mph /  3.4km/h 15mph /  24.1km/h 64.4% 0.00in /  0mm 378 W/m2
09:14 57.6 °F /  14.2 °C 45.7 °F /  7.6 °C 30.34in /  1027.3hPa SW 1.2mph /  1.9km/h 15mph /  24.1km/h 64.5% 0.00in /  0mm 371 W/m2
09:19 57.4 °F /  14.1 °C 45.6 °F /  7.6 °C 30.34in /  1027.3hPa SW 2.2mph /  3.5km/h 15mph /  24.1km/h 64.7% 0.00in /  0mm 318 W/m2
09:24 57.3 °F /  14.1 °C 45.7 °F /  7.6 °C 30.34in /  1027.3hPa WSW 1.2mph /  1.9km/h 15mph /  24.1km/h 65.2% 0.00in /  0mm 383 W/m2
09:29 57.4 °F /  14.1 °C 45.8 °F /  7.7 °C 30.34in /  1027.3hPa SW 0.7mph /  1.1km/h 15mph /  24.1km/h 65.2% 0.00in /  0mm 313 W/m2
09:34 57.5 °F /  14.2 °C 46 °F /  7.8 °C 30.33in /  1027hPa SW 2.4mph /  3.9km/h 15mph /  24.1km/h 65.3% 0.00in /  0mm 181 W/m2
09:39 57.5 °F /  14.2 °C 45.4 °F /  7.4 °C 30.33in /  1027hPa SW 2.8mph /  4.5km/h 9mph /  14.5km/h 64% 0.00in /  0mm 229 W/m2
09:44 57.5 °F /  14.2 °C 45.6 °F /  7.6 °C 30.33in /  1027hPa SW 1mph /  1.6km/h 9mph /  14.5km/h 64.4% 0.00in /  0mm 299 W/m2
09:49 57.8 °F /  14.3 °C 46.1 °F /  7.8 °C 30.33in /  1027hPa SW 0.9mph /  1.4km/h 9mph /  14.5km/h 65% 0.00in /  0mm 332 W/m2
09:54 58.3 °F /  14.6 °C 46.5 °F /  8.1 °C 30.33in /  1027hPa WSW 1mph /  1.6km/h 9mph /  14.5km/h 64.8% 0.00in /  0mm 332 W/m2
09:59 58.8 °F /  14.9 °C 46 °F /  7.8 °C 30.33in /  1027hPa SW 2.2mph /  3.5km/h 13mph /  20.9km/h 62.5% 0.00in /  0mm 406 W/m2
10:04 59.1 °F /  15.1 °C 46.1 °F /  7.8 °C 30.33in /  1027hPa SW 1.1mph /  1.8km/h 13mph /  20.9km/h 62% 0.00in /  0mm 406 W/m2
10:09 59.5 °F /  15.3 °C 46.1 °F /  7.8 °C 30.33in /  1027hPa SW 2.5mph /  4km/h 10mph /  16.1km/h 61% 0.00in /  0mm 496 W/m2
10:14 60 °F /  15.6 °C 46.3 °F /  7.9 °C 30.33in /  1027hPa SW 1.6mph /  2.6km/h 10mph /  16.1km/h 60.6% 0.00in /  0mm 499 W/m2
10:19 60.5 °F /  15.8 °C 46.4 °F /  8 °C 30.33in /  1027hPa SW 1.3mph /  2.1km/h 10mph /  16.1km/h 59.8% 0.00in /  0mm 503 W/m2
10:24 61.1 °F /  16.2 °C 46.7 °F /  8.2 °C 30.32in /  1026.6hPa SW 1.6mph /  2.6km/h 10mph /  16.1km/h 59% 0.00in /  0mm 510 W/m2
10:29 61.7 °F /  16.5 °C 47 °F /  8.3 °C 30.32in /  1026.6hPa SW 1.4mph /  2.3km/h 10mph /  16.1km/h 58.5% 0.00in /  0mm 512 W/m2
10:34 62.4 °F /  16.9 °C 47.7 °F /  8.7 °C 30.31in /  1026.3hPa SW 1.3mph /  2.1km/h 10mph /  16.1km/h 58.5% 0.00in /  0mm 462 W/m2
10:39 63 °F /  17.2 °C 47.5 °F /  8.6 °C 30.31in /  1026.3hPa SW 0.9mph /  1.4km/h 7mph /  11.3km/h 57% 0.00in /  0mm 524 W/m2
10:44 63 °F /  17.2 °C 47.2 °F /  8.4 °C 30.30in /  1026hPa SW 2.8mph /  4.5km/h 10mph /  16.1km/h 56.2% 0.00in /  0mm 524 W/m2
10:49 62.8 °F /  17.1 °C 47.4 °F /  8.6 °C 30.30in /  1026hPa WSW 1.7mph /  2.7km/h 10mph /  16.1km/h 57% 0.00in /  0mm 411 W/m2
10:54 62.7 °F /  17.1 °C 47.7 °F /  8.7 °C 30.30in /  1026hPa SW 1.2mph /  1.9km/h 10mph /  16.1km/h 58% 0.00in /  0mm 225 W/m2
10:59 62.7 °F /  17.1 °C 48 °F /  8.9 °C 30.30in /  1026hPa SW 3.7mph /  6km/h 13mph /  20.9km/h 58.7% 0.00in /  0mm 67 W/m2
11:04 62.8 °F /  17.1 °C 48.4 °F /  9.1 °C 30.29in /  1025.6hPa SW 3.3mph /  5.3km/h 14mph /  22.5km/h 59.2% 0.00in /  0mm 506 W/m2
11:09 62.9 °F /  17.2 °C 48.5 °F /  9.2 °C 30.29in /  1025.6hPa WSW 3.2mph /  5.1km/h 14mph /  22.5km/h 59.2% 0.00in /  0mm 540 W/m2
11:14 63.1 °F /  17.3 °C 48.8 °F /  9.3 °C 30.29in /  1025.6hPa SW 3.1mph /  5km/h 14mph /  22.5km/h 59.7% 0.00in /  0mm 113 W/m2
11:19 63.2 °F /  17.3 °C 48.9 °F /  9.4 °C 30.29in /  1025.6hPa SW 3.4mph /  5.5km/h 14mph /  22.5km/h 59.6% 0.00in /  0mm 371 W/m2
11:24 63.3 °F /  17.4 °C 49.2 °F /  9.6 °C 30.29in /  1025.6hPa WSW 1.8mph /  2.9km/h 14mph /  22.5km/h 59.9% 0.00in /  0mm 404 W/m2
11:29 63.6 °F /  17.6 °C 49.6 °F /  9.8 °C 30.28in /  1025.3hPa SW 2.1mph /  3.4km/h 14mph /  22.5km/h 60.2% 0.00in /  0mm 383 W/m2
11:34 63.8 °F /  17.7 °C 49.5 °F /  9.7 °C 30.28in /  1025.3hPa SW 0.8mph /  1.3km/h 14mph /  22.5km/h 59.8% 0.00in /  0mm 311 W/m2
11:39 64.1 °F /  17.8 °C 50.2 °F /  10.1 °C 30.28in /  1025.3hPa WSW 3.1mph /  5km/h 15mph /  24.1km/h 60.6% 0.00in /  0mm 396 W/m2
11:44 64.4 °F /  18 °C 50.1 °F /  10.1 °C 30.27in /  1024.9hPa SW 3.7mph /  6km/h 15mph /  24.1km/h 59.8% 0.00in /  0mm 396 W/m2
11:49 64.6 °F /  18.1 °C 50.2 °F /  10.1 °C 30.27in /  1024.9hPa SW 2.8mph /  4.5km/h 15mph /  24.1km/h 59.6% 0.00in /  0mm 234 W/m2
11:54 64.8 °F /  18.2 °C 50.4 °F /  10.2 °C 30.27in /  1024.9hPa SW 3.1mph /  5km/h 15mph /  24.1km/h 59.5% 0.00in /  0mm 380 W/m2
11:59 64.9 °F /  18.3 °C 50.3 °F /  10.2 °C 30.27in /  1024.9hPa SW 3.6mph /  5.8km/h 15mph /  24.1km/h 59% 0.00in /  0mm 380 W/m2
12:04 65 °F /  18.3 °C 50.7 °F /  10.4 °C 30.25in /  1024.3hPa WSW 9mph /  14.5km/h 15mph /  24.1km/h 59.8% 0.00in /  0mm 132 W/m2
12:09 65.1 °F /  18.4 °C 50.6 °F /  10.3 °C 30.25in /  1024.3hPa SW 2.6mph /  4.2km/h 15mph /  24.1km/h 59.3% 0.00in /  0mm 362 W/m2
12:14 65.3 °F /  18.5 °C 50.8 °F /  10.4 °C 30.25in /  1024.3hPa SW 3.6mph /  5.8km/h 15mph /  24.1km/h 59.5% 0.00in /  0mm 359 W/m2
12:19 65.5 °F /  18.6 °C 50.9 °F /  10.5 °C 30.25in /  1024.3hPa SW 3.9mph /  6.3km/h 17mph /  27.4km/h 59.3% 0.00in /  0mm 218 W/m2
12:24 65.7 °F /  18.7 °C 51.1 °F /  10.6 °C 30.25in /  1024.3hPa SW 2.6mph /  4.2km/h 17mph /  27.4km/h 59.3% 0.00in /  0mm 211 W/m2
12:29 65.9 °F /  18.8 °C 51.4 °F /  10.8 °C 30.24in /  1023.9hPa SW 4.3mph /  6.9km/h 17mph /  27.4km/h 59.4% 0.00in /  0mm 501 W/m2
12:34 66.2 °F /  19 °C 51.7 °F /  10.9 °C 30.24in /  1023.9hPa SW 4mph /  6.4km/h 17mph /  27.4km/h 59.5% 0.00in /  0mm 462 W/m2
12:39 66.6 °F /  19.2 °C 51.6 °F /  10.9 °C 30.24in /  1023.9hPa SW 2.2mph /  3.5km/h 13mph /  20.9km/h 58.5% 0.00in /  0mm 56 W/m2
12:44 66.8 °F /  19.3 °C 51.9 °F /  11.1 °C 30.24in /  1023.9hPa WSW 2.2mph /  3.5km/h 13mph /  20.9km/h 58.7% 0.00in /  0mm 320 W/m2
12:49 67 °F /  19.4 °C 51.9 °F /  11.1 °C 30.23in /  1023.6hPa WSW 2mph /  3.2km/h 13mph /  20.9km/h 58.3% 0.00in /  0mm 141 W/m2
12:54 67.2 °F /  19.6 °C 51.8 °F /  11 °C 30.23in /  1023.6hPa WSW 2.2mph /  3.5km/h 13mph /  20.9km/h 57.9% 0.00in /  0mm 323 W/m2
12:59 67.4 °F /  19.7 °C 51.8 °F /  11 °C 30.23in /  1023.6hPa WSW 1.3mph /  2.1km/h 13mph /  20.9km/h 57.5% 0.00in /  0mm 348 W/m2
13:04 67.6 °F /  19.8 °C 51.9 °F /  11.1 °C 30.23in /  1023.6hPa SW 2.1mph /  3.4km/h 13mph /  20.9km/h 57.1% 0.00in /  0mm 348 W/m2
13:09 67.8 °F /  19.9 °C 51.9 °F /  11.1 °C 30.23in /  1023.6hPa SW 1.6mph /  2.6km/h 6mph /  9.7km/h 56.8% 0.00in /  0mm 197 W/m2
13:14 68 °F /  20 °C 51.7 °F /  10.9 °C 30.23in /  1023.6hPa SW 1.7mph /  2.7km/h 6mph /  9.7km/h 56% 0.00in /  0mm 448 W/m2
13:19 68.2 °F /  20.1 °C 52.1 °F /  11.2 °C 30.22in /  1023.2hPa SW 2.3mph /  3.7km/h 11mph /  17.7km/h 56.3% 0.00in /  0mm 448 W/m2
13:24 68.5 °F /  20.3 °C 51.9 °F /  11.1 °C 30.22in /  1023.2hPa SW 2.6mph /  4.2km/h 12mph /  19.3km/h 55.4% 0.00in /  0mm 438 W/m2
13:29 68.7 °F /  20.4 °C 51.9 °F /  11.1 °C 30.22in /  1023.2hPa WSW 2mph /  3.2km/h 12mph /  19.3km/h 55.1% 0.00in /  0mm 424 W/m2
13:34 68.8 °F /  20.4 °C 52.4 °F /  11.3 °C 30.22in /  1023.2hPa SSW 0.8mph /  1.3km/h 12mph /  19.3km/h 55.8% 0.00in /  0mm 388 W/m2
13:39 68.9 °F /  20.5 °C 52.3 °F /  11.3 °C 30.22in /  1023.2hPa SW 3.1mph /  5km/h 15mph /  24.1km/h 55.5% 0.00in /  0mm 388 W/m2
13:44 68.8 °F /  20.4 °C 52.4 °F /  11.3 °C 30.22in /  1023.2hPa SSW 2.6mph /  4.2km/h 15mph /  24.1km/h 55.8% 0.00in /  0mm 125 W/m2
13:49 68.7 °F /  20.4 °C 52 °F /  11.1 °C 30.21in /  1022.9hPa SW 3.3mph /  5.3km/h 15mph /  24.1km/h 55.1% 0.00in /  0mm 399 W/m2
13:54 68.6 °F /  20.3 °C 52 °F /  11.1 °C 30.21in /  1022.9hPa SW 1.8mph /  2.9km/h 15mph /  24.1km/h 55.3% 0.00in /  0mm 374 W/m2
13:59 68.5 °F /  20.3 °C 52.2 °F /  11.2 °C 30.21in /  1022.9hPa SW 2.4mph /  3.9km/h 15mph /  24.1km/h 55.9% 0.00in /  0mm 220 W/m2
14:04 68.4 °F /  20.2 °C 52.1 °F /  11.2 °C 30.21in /  1022.9hPa SW 1.2mph /  1.9km/h 15mph /  24.1km/h 56% 0.00in /  0mm 262 W/m2
14:09 68.4 °F /  20.2 °C 52.1 °F /  11.2 °C 30.21in /  1022.9hPa SW 1.7mph /  2.7km/h 9mph /  14.5km/h 56% 0.00in /  0mm 128 W/m2
14:14 68.3 °F /  20.2 °C 52 °F /  11.1 °C 30.21in /  1022.9hPa SW 1.2mph /  1.9km/h 9mph /  14.5km/h 56% 0.00in /  0mm 204 W/m2
14:19 68.3 °F /  20.2 °C 52.1 °F /  11.2 °C 30.21in /  1022.9hPa WSW 1.2mph /  1.9km/h 9mph /  14.5km/h 56.2% 0.00in /  0mm 251 W/m2
14:24 68.3 °F /  20.2 °C 52 °F /  11.1 °C 30.21in /  1022.9hPa WSW 0.8mph /  1.3km/h 9mph /  14.5km/h 56% 0.00in /  0mm 98 W/m2
14:29 68.2 °F /  20.1 °C 51.9 °F /  11.1 °C 30.21in /  1022.9hPa SW 2.1mph /  3.4km/h 9mph /  14.5km/h 56% 0.00in /  0mm 102 W/m2
14:34 68 °F /  20 °C 51.8 °F /  11 °C 30.21in /  1022.9hPa SW 2.6mph /  4.2km/h 9mph /  14.5km/h 56% 0.00in /  0mm 30 W/m2
14:39 67.8 °F /  19.9 °C 51.7 °F /  10.9 °C 30.20in /  1022.6hPa SW 1.1mph /  1.8km/h 9mph /  14.5km/h 56.1% 0.00in /  0mm 28 W/m2
14:44 67.8 °F /  19.9 °C 51.9 °F /  11.1 °C 30.20in /  1022.6hPa SW 2.1mph /  3.4km/h 14mph /  22.5km/h 56.8% 0.00in /  0mm 28 W/m2
14:49 67.7 °F /  19.8 °C 51.7 °F /  10.9 °C 30.20in /  1022.6hPa SW 0.8mph /  1.3km/h 14mph /  22.5km/h 56.5% 0.00in /  0mm 26 W/m2
14:54 67.6 °F /  19.8 °C 51.8 °F /  11 °C 30.20in /  1022.6hPa SW 1.6mph /  2.6km/h 14mph /  22.5km/h 57% 0.00in /  0mm 26 W/m2
14:59 67.4 °F /  19.7 °C 51.7 °F /  10.9 °C 30.20in /  1022.6hPa SW 1.7mph /  2.7km/h 14mph /  22.5km/h 57% 0.00in /  0mm 25 W/m2
15:04 67.2 °F /  19.6 °C 51.5 °F /  10.8 °C 30.20in /  1022.6hPa SW 2.3mph /  3.7km/h 14mph /  22.5km/h 57% 0.00in /  0mm 25 W/m2
15:09 67.1 °F /  19.5 °C 51.4 °F /  10.8 °C 30.20in /  1022.6hPa SW 1.9mph /  3.1km/h 7mph /  11.3km/h 57% 0.00in /  0mm 23 W/m2
15:14 67 °F /  19.4 °C 51.4 °F /  10.8 °C 30.21in /  1022.9hPa SW 0.6mph /  1km/h 7mph /  11.3km/h 57.3% 0.00in /  0mm 23 W/m2
15:19 66.9 °F /  19.4 °C 51.5 °F /  10.8 °C 30.21in /  1022.9hPa WSW 0.8mph /  1.3km/h 7mph /  11.3km/h 57.6% 0.00in /  0mm 21 W/m2
15:24 66.8 °F /  19.3 °C 51.4 °F /  10.8 °C 30.21in /  1022.9hPa SW 2.7mph /  4.3km/h 13mph /  20.9km/h 57.7% 0.00in /  0mm 21 W/m2
15:29 66.7 °F /  19.3 °C 51.4 °F /  10.8 °C 30.21in /  1022.9hPa SW 1.9mph /  3.1km/h 13mph /  20.9km/h 58% 0.00in /  0mm 19 W/m2
15:34 66.6 °F /  19.2 °C 51.3 °F /  10.7 °C 30.20in /  1022.6hPa SW 1.8mph /  2.9km/h 13mph /  20.9km/h 58% 0.00in /  0mm 19 W/m2
15:39 66.5 °F /  19.2 °C 51.3 °F /  10.7 °C 30.20in /  1022.6hPa WSW 0.9mph /  1.4km/h 9mph /  14.5km/h 58% 0.00in /  0mm 18 W/m2
15:44 66.3 °F /  19.1 °C 51.2 °F /  10.7 °C 30.20in /  1022.6hPa WSW 0.5mph /  0.8km/h 9mph /  14.5km/h 58.1% 0.00in /  0mm 18 W/m2
15:49 66.2 °F /  19 °C 51.1 °F /  10.6 °C 30.20in /  1022.6hPa WSW 0.9mph /  1.4km/h 9mph /  14.5km/h 58.3% 0.00in /  0mm 16 W/m2
15:54 66.1 °F /  18.9 °C 51.3 °F /  10.7 °C 30.20in /  1022.6hPa SW 0.5mph /  0.8km/h 9mph /  14.5km/h 59% 0.00in /  0mm 16 W/m2
15:59 65.9 °F /  18.8 °C 51.2 °F /  10.7 °C 30.20in /  1022.6hPa WSW 0.1mph /  0.2km/h 9mph /  14.5km/h 59% 0.00in /  0mm 14 W/m2
16:00 65.8 °F /  18.8 °C 51.1 °F /  10.6 °C 30.20in /  1022.6hPa Calm   9mph /  14.5km/h 59% 0.00in /  0mm 12 W/m2
16:09 65.5 °F /  18.6 °C 51.3 °F /  10.7 °C 30.20in /  1022.6hPa Calm   1mph /  1.6km/h 60% 0.00in /  0mm 11 W/m2
16:14 65.4 °F /  18.6 °C 51.1 °F /  10.6 °C 30.20in /  1022.6hPa WSW 0.3mph /  0.5km/h 2mph /  3.2km/h 60% 0.00in /  0mm 11 W/m2
16:19 65.2 °F /  18.4 °C 51.3 °F /  10.7 °C 30.20in /  1022.6hPa Calm   2mph /  3.2km/h 60.8% 0.00in /  0mm 9 W/m2
16:24 65 °F /  18.3 °C 51.3 °F /  10.7 °C 30.20in /  1022.6hPa WSW 0.2mph /  0.3km/h 3mph /  4.8km/h 61% 0.00in /  0mm 7 W/m2
16:29 64.8 °F /  18.2 °C 51.4 °F /  10.8 °C 30.19in /  1022.2hPa WSW 0.9mph /  1.4km/h 5mph /  8km/h 61.6% 0.00in /  0mm 0 W/m2
16:34 64.6 °F /  18.1 °C 51.1 °F /  10.6 °C 30.19in /  1022.2hPa SW 1.2mph /  1.9km/h 9mph /  14.5km/h 61.5% 0.00in /  0mm 0 W/m2
16:39 64.5 °F /  18.1 °C 51.2 °F /  10.7 °C 30.19in /  1022.2hPa SW 0.3mph /  0.5km/h 9mph /  14.5km/h 62% 0.00in /  0mm 0 W/m2
16:44 64.3 °F /  17.9 °C 51.1 °F /  10.6 °C 30.20in /  1022.6hPa SW 0.1mph /  0.2km/h 9mph /  14.5km/h 62% 0.00in /  0mm 0 W/m2
16:49 64.1 °F /  17.8 °C 51 °F /  10.6 °C 30.19in /  1022.2hPa SW 0.1mph /  0.2km/h 9mph /  14.5km/h 62.3% 0.00in /  0mm 0 W/m2
16:54 64 °F /  17.8 °C 51.1 °F /  10.6 °C 30.20in /  1022.6hPa Calm   9mph /  14.5km/h 63% 0.00in /  0mm 0 W/m2
16:59 63.7 °F /  17.6 °C 50.9 °F /  10.5 °C 30.19in /  1022.2hPa Calm   9mph /  14.5km/h 63% 0.00in /  0mm 0 W/m2
17:04 63.6 °F /  17.6 °C 51.1 °F /  10.6 °C 30.19in /  1022.2hPa SW 0.3mph /  0.5km/h 9mph /  14.5km/h 63.7% 0.00in /  0mm 0 W/m2
17:09 63.4 °F /  17.4 °C 51.2 °F /  10.7 °C 30.19in /  1022.2hPa SW 0.1mph /  0.2km/h 3mph /  4.8km/h 64.4% 0.00in /  0mm 0 W/m2
17:14 63.2 °F /  17.3 °C 51.3 °F /  10.7 °C 30.19in /  1022.2hPa SW 0.1mph /  0.2km/h 3mph /  4.8km/h 65% 0.00in /  0mm 0 W/m2
17:19 63 °F /  17.2 °C 51.1 °F /  10.6 °C 30.19in /  1022.2hPa SW 0.1mph /  0.2km/h 3mph /  4.8km/h 65% 0.00in /  0mm 0 W/m2
17:24 62.9 °F /  17.2 °C 51.2 °F /  10.7 °C 30.19in /  1022.2hPa Calm   3mph /  4.8km/h 65.7% 0.00in /  0mm 0 W/m2
17:29 62.6 °F /  17 °C 51.3 °F /  10.7 °C 30.19in /  1022.2hPa Calm   3mph /  4.8km/h 66.4% 0.00in /  0mm 0 W/m2
17:34 62.4 °F /  16.9 °C 51 °F /  10.6 °C 30.19in /  1022.2hPa Calm   3mph /  4.8km/h 66.3% 0.00in /  0mm 0 W/m2
17:39 62.2 °F /  16.8 °C 51.1 °F /  10.6 °C 30.19in /  1022.2hPa Calm   2mph /  3.2km/h 67% 0.00in /  0mm 0 W/m2
17:44 62 °F /  16.7 °C 51.1 °F /  10.6 °C 30.20in /  1022.6hPa Calm   2mph /  3.2km/h 67.3% 0.00in /  0mm 0 W/m2
17:49 61.8 °F /  16.6 °C 51.1 °F /  10.6 °C 30.20in /  1022.6hPa Calm   2mph /  3.2km/h 67.9% 0.00in /  0mm 0 W/m2
17:54 61.6 °F /  16.4 °C 51 °F /  10.6 °C 30.19in /  1022.2hPa SW 0.1mph /  0.2km/h 4mph /  6.4km/h 68.2% 0.00in /  0mm 0 W/m2
17:59 61.5 °F /  16.4 °C 51.2 °F /  10.7 °C 30.19in /  1022.2hPa Calm   4mph /  6.4km/h 69% 0.00in /  0mm 0 W/m2
18:04 61.4 °F /  16.3 °C 51.1 °F /  10.6 °C 30.20in /  1022.6hPa Calm   4mph /  6.4km/h 69% 0.00in /  0mm 0 W/m2
18:09 61.3 °F /  16.3 °C 51.1 °F /  10.6 °C 30.20in /  1022.6hPa Calm   1mph /  1.6km/h 69% 0.00in /  0mm 0 W/m2
18:14 61.2 °F /  16.2 °C 51 °F /  10.6 °C 30.19in /  1022.2hPa Calm   1mph /  1.6km/h 69% 0.00in /  0mm 0 W/m2
18:19 61.1 °F /  16.2 °C 50.9 °F /  10.5 °C 30.19in /  1022.2hPa SW 0.2mph /  0.3km/h 3mph /  4.8km/h 69% 0.00in /  0mm 0 W/m2
18:24 61.1 °F /  16.2 °C 51.2 °F /  10.7 °C 30.19in /  1022.2hPa SW 0.1mph /  0.2km/h 3mph /  4.8km/h 69.9% 0.00in /  0mm 0 W/m2
18:29 61 °F /  16.1 °C 51.1 °F /  10.6 °C 30.19in /  1022.2hPa Calm   3mph /  4.8km/h 70% 0.00in /  0mm 0 W/m2
18:34 60.9 °F /  16.1 °C 51.1 °F /  10.6 °C 30.19in /  1022.2hPa Calm   3mph /  4.8km/h 70.3% 0.00in /  0mm 0 W/m2
18:39 60.7 °F /  15.9 °C 51.2 °F /  10.7 °C 30.19in /  1022.2hPa Calm     70.9% 0.00in /  0mm 0 W/m2
18:44 60.6 °F /  15.9 °C 51.1 °F /  10.6 °C 30.19in /  1022.2hPa Calm     71% 0.00in /  0mm 0 W/m2
18:49 60.5 °F /  15.8 °C 51.2 °F /  10.7 °C 30.19in /  1022.2hPa SW 0.2mph /  0.3km/h 4mph /  6.4km/h 71.4% 0.00in /  0mm 0 W/m2
18:54 60.4 °F /  15.8 °C 51.3 °F /  10.7 °C 30.19in /  1022.2hPa Calm   4mph /  6.4km/h 72% 0.00in /  0mm 0 W/m2
18:59 60.2 °F /  15.7 °C 51.2 °F /  10.7 °C 30.19in /  1022.2hPa SW 0.3mph /  0.5km/h 4mph /  6.4km/h 72% 0.00in /  0mm 0 W/m2
19:04 60.1 °F /  15.6 °C 51.1 °F /  10.6 °C 30.19in /  1022.2hPa Calm   4mph /  6.4km/h 72% 0.00in /  0mm 0 W/m2
19:09 60 °F /  15.6 °C 51.3 °F /  10.7 °C 30.19in /  1022.2hPa Calm     73% 0.00in /  0mm 0 W/m2
19:14 59.9 °F /  15.5 °C 51.2 °F /  10.7 °C 30.19in /  1022.2hPa SW 0.1mph /  0.2km/h 3mph /  4.8km/h 73% 0.00in /  0mm 0 W/m2
19:19 59.7 °F /  15.4 °C 51.2 °F /  10.7 °C 30.18in /  1021.9hPa Calm   3mph /  4.8km/h 73.4% 0.00in /  0mm 0 W/m2
19:24 59.6 °F /  15.3 °C 51.3 °F /  10.7 °C 30.19in /  1022.2hPa SW 0.2mph /  0.3km/h 3mph /  4.8km/h 73.9% 0.00in /  0mm 0 W/m2
19:29 59.5 °F /  15.3 °C 51.2 °F /  10.7 °C 30.18in /  1021.9hPa SW 0.4mph /  0.6km/h 5mph /  8km/h 74% 0.00in /  0mm 0 W/m2
19:34 59.4 °F /  15.2 °C 51.3 °F /  10.7 °C 30.18in /  1021.9hPa SW 0.2mph /  0.3km/h 5mph /  8km/h 74.5% 0.00in /  0mm 0 W/m2
19:39 59.4 °F /  15.2 °C 51.4 °F /  10.8 °C 30.19in /  1022.2hPa Calm   3mph /  4.8km/h 75% 0.00in /  0mm 0 W/m2
19:44 59.3 °F /  15.2 °C 51.4 °F /  10.8 °C 30.19in /  1022.2hPa Calm   3mph /  4.8km/h 75% 0.00in /  0mm 0 W/m2
19:49 59.2 °F /  15.1 °C 51.2 °F /  10.7 °C 30.18in /  1021.9hPa Calm   3mph /  4.8km/h 75% 0.00in /  0mm 0 W/m2
19:54 59 °F /  15 °C 51.4 °F /  10.8 °C 30.19in /  1022.2hPa Calm   3mph /  4.8km/h 75.7% 0.00in /  0mm 0 W/m2
19:59 58.9 °F /  14.9 °C 51.4 °F /  10.8 °C 30.19in /  1022.2hPa SW 0.1mph /  0.2km/h 3mph /  4.8km/h 76% 0.00in /  0mm 0 W/m2
20:00 58.9 °F /  14.9 °C 51.4 °F /  10.8 °C 30.18in /  1021.9hPa Calm   3mph /  4.8km/h 76% 0.00in /  0mm 0 W/m2
20:09 58.7 °F /  14.8 °C 51.5 °F /  10.8 °C 30.19in /  1022.2hPa Calm     77% 0.00in /  0mm 0 W/m2
20:14 58.5 °F /  14.7 °C 51.4 °F /  10.8 °C 30.19in /  1022.2hPa Calm     77% 0.00in /  0mm 0 W/m2
20:19 58.4 °F /  14.7 °C 51.3 °F /  10.7 °C 30.19in /  1022.2hPa Calm     77.3% 0.00in /  0mm 0 W/m2
20:24 58.2 °F /  14.6 °C 51.4 °F /  10.8 °C 30.19in /  1022.2hPa Calm     78% 0.00in /  0mm 0 W/m2
20:29 58.1 °F /  14.5 °C 51.6 °F /  10.9 °C 30.19in /  1022.2hPa SW 0.1mph /  0.2km/h 2mph /  3.2km/h 78.9% 0.00in /  0mm 0 W/m2
20:34 58.1 °F /  14.5 °C 51.8 °F /  11 °C 30.19in /  1022.2hPa Calm   2mph /  3.2km/h 79.6% 0.00in /  0mm 0 W/m2
20:39 58.1 °F /  14.5 °C 52 °F /  11.1 °C 30.19in /  1022.2hPa Calm     80% 0.00in /  0mm 0 W/m2
20:44 58 °F /  14.4 °C 51.9 °F /  11.1 °C 30.19in /  1022.2hPa Calm     80% 0.00in /  0mm 0 W/m2
20:49 57.9 °F /  14.4 °C 51.8 °F /  11 °C 30.19in /  1022.2hPa Calm     80.1% 0.00in /  0mm 0 W/m2
20:54 57.8 °F /  14.3 °C 52 °F /  11.1 °C 30.19in /  1022.2hPa Calm     81% 0.00in /  0mm 0 W/m2
20:59 57.7 °F /  14.3 °C 52 °F /  11.1 °C 30.19in /  1022.2hPa Calm     81.1% 0.00in /  0mm 0 W/m2
21:04 57.6 °F /  14.2 °C 52.2 °F /  11.2 °C 30.19in /  1022.2hPa Calm     82% 0.00in /  0mm 0 W/m2
21:09 57.5 °F /  14.2 °C 52.1 °F /  11.2 °C 30.18in /  1021.9hPa Calm     82% 0.00in /  0mm 0 W/m2
21:14 57.4 °F /  14.1 °C 52.1 °F /  11.2 °C 30.18in /  1021.9hPa Calm     82.4% 0.00in /  0mm 0 W/m2
21:19 57.4 °F /  14.1 °C 52.3 °F /  11.3 °C 30.19in /  1022.2hPa Calm     83% 0.00in /  0mm 0 W/m2
21:24 57.3 °F /  14.1 °C 52.2 °F /  11.2 °C 30.18in /  1021.9hPa Calm     83% 0.00in /  0mm 0 W/m2
21:29 57.1 °F /  13.9 °C 52 °F /  11.1 °C 30.19in /  1022.2hPa Calm     83% 0.00in /  0mm 0 W/m2
21:34 57 °F /  13.9 °C 52.2 °F /  11.2 °C 30.19in /  1022.2hPa Calm     83.8% 0.00in /  0mm 0 W/m2
21:39 56.9 °F /  13.8 °C 52.2 °F /  11.2 °C 30.18in /  1021.9hPa Calm     84.2% 0.00in /  0mm 0 W/m2
21:44 56.9 °F /  13.8 °C 52.6 °F /  11.4 °C 30.18in /  1021.9hPa Calm     85.6% 0.00in /  0mm 0 W/m2
21:49 56.8 °F /  13.8 °C 52.4 °F /  11.3 °C 30.18in /  1021.9hPa Calm     85.2% 0.00in /  0mm 0 W/m2
21:54 56.7 °F /  13.7 °C 52.3 °F /  11.3 °C 30.18in /  1021.9hPa Calm     85% 0.00in /  0mm 0 W/m2
21:59 56.6 °F /  13.7 °C 52.5 °F /  11.4 °C 30.18in /  1021.9hPa Calm     86% 0.00in /  0mm 0 W/m2
22:04 56.4 °F /  13.6 °C 52.1 °F /  11.2 °C 30.18in /  1021.9hPa Calm     85.6% 0.00in /  0mm 0 W/m2
22:09 56.1 °F /  13.4 °C 52 °F /  11.1 °C 30.18in /  1021.9hPa Calm     86% 0.00in /  0mm 0 W/m2
22:14 56 °F /  13.3 °C 51.9 °F /  11.1 °C 30.18in /  1021.9hPa Calm     86% 0.00in /  0mm 0 W/m2
22:19 55.9 °F /  13.3 °C 51.8 °F /  11 °C 30.18in /  1021.9hPa Calm     86% 0.00in /  0mm 0 W/m2
22:24 55.9 °F /  13.3 °C 51.8 °F /  11 °C 30.18in /  1021.9hPa Calm     86% 0.00in /  0mm 0 W/m2
22:29 55.8 °F /  13.2 °C 51.8 °F /  11 °C 30.18in /  1021.9hPa Calm     86.3% 0.00in /  0mm 0 W/m2
22:34 55.8 °F /  13.2 °C 51.9 °F /  11.1 °C 30.18in /  1021.9hPa Calm     87% 0.00in /  0mm 0 W/m2
22:39 55.7 °F /  13.2 °C 51.9 °F /  11.1 °C 30.18in /  1021.9hPa Calm   1mph /  1.6km/h 87% 0.00in /  0mm 0 W/m2
22:44 55.7 °F /  13.2 °C 51.9 °F /  11.1 °C 30.18in /  1021.9hPa Calm   1mph /  1.6km/h 87% 0.00in /  0mm 0 W/m2
22:49 55.7 °F /  13.2 °C 51.9 °F /  11.1 °C 30.18in /  1021.9hPa Calm   1mph /  1.6km/h 87% 0.00in /  0mm 0 W/m2
22:54 55.7 °F /  13.2 °C 51.9 °F /  11.1 °C 30.18in /  1021.9hPa Calm   1mph /  1.6km/h 87% 0.00in /  0mm 0 W/m2
22:59 55.7 °F /  13.2 °C 52.2 °F /  11.2 °C 30.18in /  1021.9hPa Calm   1mph /  1.6km/h 87.9% 0.00in /  0mm 0 W/m2
23:09 55.7 °F /  13.2 °C 52.2 °F /  11.2 °C 30.18in /  1021.9hPa Calm     88% 0.00in /  0mm 0 W/m2
23:14 55.7 °F /  13.2 °C 52.2 °F /  11.2 °C 30.18in /  1021.9hPa Calm     88% 0.00in /  0mm 0 W/m2
23:19 55.7 °F /  13.2 °C 52.2 °F /  11.2 °C 30.18in /  1021.9hPa Calm     88% 0.00in /  0mm 0 W/m2
23:24 55.6 °F /  13.1 °C 52.1 °F /  11.2 °C 30.18in /  1021.9hPa Calm     88% 0.00in /  0mm 0 W/m2
23:29 55.5 °F /  13.1 °C 52 °F /  11.1 °C 30.18in /  1021.9hPa Calm     88% 0.00in /  0mm 0 W/m2
23:34 55.5 °F /  13.1 °C 52.1 °F /  11.2 °C 30.18in /  1021.9hPa Calm     88.4% 0.00in /  0mm 0 W/m2
23:39 55.5 °F /  13.1 °C 52.3 °F /  11.3 °C 30.18in /  1021.9hPa Calm     89% 0.00in /  0mm 0 W/m2
23:44 55.4 °F /  13 °C 52.2 °F /  11.2 °C 30.17in /  1021.6hPa Calm     89% 0.00in /  0mm 0 W/m2
23:49 55.3 °F /  12.9 °C 52.1 °F /  11.2 °C 30.17in /  1021.6hPa Calm     89% 0.00in /  0mm 0 W/m2
23:54 55.1 °F /  12.8 °C 51.9 °F /  11.1 °C 30.17in /  1021.6hPa Calm     89% 0.00in /  0mm 0 W/m2
23:59 54.9 °F /  12.7 °C 51.8 °F /  11 °C 30.17in /  1021.6hPa Calm     89% 0.00in /  0mm 0 W/m2
Hartford County Weather
Compliments of Weather Underground - 4 mb